sensor_id;sensor_type;location;lat;lon;timestamp;pressure;altitude;pressure_sealevel;temperature;humidity
30421;BME280;17218;54.070;10.012;2023-04-06T00:00:27;101840.44;;;0.65;100.00
30421;BME280;17218;54.070;10.012;2023-04-06T00:02:53;101837.13;;;0.66;100.00
30421;BME280;17218;54.070;10.012;2023-04-06T00:05:20;101841.56;;;0.70;100.00
30421;BME280;17218;54.070;10.012;2023-04-06T00:07:48;101824.59;;;0.71;100.00
30421;BME280;17218;54.070;10.012;2023-04-06T00:10:15;101829.06;;;0.75;100.00
30421;BME280;17218;54.070;10.012;2023-04-06T00:12:42;101824.72;;;0.74;100.00
30421;BME280;17218;54.070;10.012;2023-04-06T00:15:09;101832.00;;;0.66;100.00
30421;BME280;17218;54.070;10.012;2023-04-06T00:17:37;101830.50;;;0.53;100.00
30421;BME280;17218;54.070;10.012;2023-04-06T00:20:05;101830.25;;;0.49;100.00
30421;BME280;17218;54.070;10.012;2023-04-06T00:22:32;101826.50;;;0.42;100.00
30421;BME280;17218;54.070;10.012;2023-04-06T00:24:58;101831.13;;;0.32;100.00
30421;BME280;17218;54.070;10.012;2023-04-06T00:27:25;101830.31;;;0.33;100.00
30421;BME280;17218;54.070;10.012;2023-04-06T00:29:52;101823.41;;;0.31;100.00
30421;BME280;17218;54.070;10.012;2023-04-06T00:32:19;101815.69;;;0.29;100.00
30421;BME280;17218;54.070;10.012;2023-04-06T00:34:46;101834.56;;;0.33;100.00
30421;BME280;17218;54.070;10.012;2023-04-06T00:37:13;101828.50;;;0.31;100.00
30421;BME280;17218;54.070;10.012;2023-04-06T00:39:40;101827.63;;;0.30;100.00
30421;BME280;17218;54.070;10.012;2023-04-06T00:42:10;101813.13;;;0.29;100.00
30421;BME280;17218;54.070;10.012;2023-04-06T00:44:38;101826.56;;;0.27;100.00
30421;BME280;17218;54.070;10.012;2023-04-06T00:47:04;101826.97;;;0.18;100.00
30421;BME280;17218;54.070;10.012;2023-04-06T00:49:32;101823.38;;;0.14;100.00
30421;BME280;17218;54.070;10.012;2023-04-06T00:52:00;101815.97;;;0.19;100.00
30421;BME280;17218;54.070;10.012;2023-04-06T00:54:27;101818.59;;;0.20;100.00
30421;BME280;17218;54.070;10.012;2023-04-06T00:56:54;101816.78;;;0.18;100.00
30421;BME280;17218;54.070;10.012;2023-04-06T00:59:20;101811.91;;;0.22;100.00
30421;BME280;17218;54.070;10.012;2023-04-06T01:01:47;101822.09;;;0.22;100.00
30421;BME280;17218;54.070;10.012;2023-04-06T01:04:14;101806.66;;;0.19;100.00
30421;BME280;17218;54.070;10.012;2023-04-06T01:06:41;101806.97;;;0.09;100.00
30421;BME280;17218;54.070;10.012;2023-04-06T01:09:09;101800.03;;;0.06;100.00
30421;BME280;17218;54.070;10.012;2023-04-06T01:11:35;101811.88;;;0.06;100.00
30421;BME280;17218;54.070;10.012;2023-04-06T01:14:03;101807.84;;;0.09;100.00
30421;BME280;17218;54.070;10.012;2023-04-06T01:16:29;101798.28;;;0.05;100.00
30421;BME280;17218;54.070;10.012;2023-04-06T01:18:56;101789.69;;;0.03;100.00
30421;BME280;17218;54.070;10.012;2023-04-06T01:21:22;101803.31;;;0.04;100.00
30421;BME280;17218;54.070;10.012;2023-04-06T01:23:50;101793.13;;;0.04;100.00
30421;BME280;17218;54.070;10.012;2023-04-06T01:26:17;101781.78;;;-0.02;100.00
30421;BME280;17218;54.070;10.012;2023-04-06T01:28:44;101779.25;;;-0.02;100.00
30421;BME280;17218;54.070;10.012;2023-04-06T01:31:11;101772.25;;;-0.06;100.00
30421;BME280;17218;54.070;10.012;2023-04-06T01:33:38;101784.72;;;-0.10;100.00
30421;BME280;17218;54.070;10.012;2023-04-06T01:36:05;101775.16;;;-0.15;100.00
30421;BME280;17218;54.070;10.012;2023-04-06T01:38:31;101770.06;;;-0.15;100.00
30421;BME280;17218;54.070;10.012;2023-04-06T01:40:59;101785.03;;;-0.21;100.00
30421;BME280;17218;54.070;10.012;2023-04-06T01:43:26;101778.09;;;-0.23;100.00
30421;BME280;17218;54.070;10.012;2023-04-06T01:45:52;101785.50;;;-0.28;100.00
30421;BME280;17218;54.070;10.012;2023-04-06T01:48:19;101782.22;;;-0.26;100.00
30421;BME280;17218;54.070;10.012;2023-04-06T01:50:46;101781.75;;;-0.18;100.00
30421;BME280;17218;54.070;10.012;2023-04-06T01:53:12;101786.00;;;-0.19;100.00
30421;BME280;17218;54.070;10.012;2023-04-06T01:55:39;101772.31;;;-0.21;100.00
30421;BME280;17218;54.070;10.012;2023-04-06T01:58:07;101771.56;;;-0.18;100.00
30421;BME280;17218;54.070;10.012;2023-04-06T02:00:34;101771.69;;;-0.17;100.00
30421;BME280;17218;54.070;10.012;2023-04-06T02:03:00;101778.50;;;-0.16;100.00
30421;BME280;17218;54.070;10.012;2023-04-06T02:05:29;101777.41;;;-0.21;100.00
30421;BME280;17218;54.070;10.012;2023-04-06T02:07:56;101769.28;;;-0.14;100.00
30421;BME280;17218;54.070;10.012;2023-04-06T02:10:23;101775.25;;;-0.13;100.00
30421;BME280;17218;54.070;10.012;2023-04-06T02:12:50;101772.03;;;-0.26;100.00
30421;BME280;17218;54.070;10.012;2023-04-06T02:15:17;101776.91;;;-0.30;100.00
30421;BME280;17218;54.070;10.012;2023-04-06T02:17:44;101769.09;;;-0.33;100.00
30421;BME280;17218;54.070;10.012;2023-04-06T02:20:11;101774.88;;;-0.36;100.00
30421;BME280;17218;54.070;10.012;2023-04-06T02:22:38;101765.19;;;-0.27;100.00
30421;BME280;17218;54.070;10.012;2023-04-06T02:25:05;101770.22;;;-0.28;100.00
30421;BME280;17218;54.070;10.012;2023-04-06T02:27:31;101771.66;;;-0.33;100.00
30421;BME280;17218;54.070;10.012;2023-04-06T02:29:58;101766.94;;;-0.26;100.00
30421;BME280;17218;54.070;10.012;2023-04-06T02:32:26;101774.44;;;-0.29;100.00
30421;BME280;17218;54.070;10.012;2023-04-06T02:34:52;101780.78;;;-0.37;100.00
30421;BME280;17218;54.070;10.012;2023-04-06T02:37:19;101779.28;;;-0.33;100.00
30421;BME280;17218;54.070;10.012;2023-04-06T02:39:46;101775.03;;;-0.33;100.00
30421;BME280;17218;54.070;10.012;2023-04-06T02:42:13;101770.69;;;-0.35;100.00
30421;BME280;17218;54.070;10.012;2023-04-06T02:44:40;101774.97;;;-0.34;100.00
30421;BME280;17218;54.070;10.012;2023-04-06T02:47:07;101757.28;;;-0.31;100.00
30421;BME280;17218;54.070;10.012;2023-04-06T02:49:35;101764.16;;;-0.30;100.00
30421;BME280;17218;54.070;10.012;2023-04-06T02:52:01;101765.75;;;-0.32;100.00
30421;BME280;17218;54.070;10.012;2023-04-06T02:54:28;101760.00;;;-0.45;100.00
30421;BME280;17218;54.070;10.012;2023-04-06T02:56:54;101762.28;;;-0.50;100.00
30421;BME280;17218;54.070;10.012;2023-04-06T02:59:21;101760.97;;;-0.58;100.00
30421;BME280;17218;54.070;10.012;2023-04-06T03:01:48;101756.41;;;-0.49;100.00
30421;BME280;17218;54.070;10.012;2023-04-06T03:04:14;101750.50;;;-0.47;100.00
30421;BME280;17218;54.070;10.012;2023-04-06T03:06:42;101753.84;;;-0.49;100.00
30421;BME280;17218;54.070;10.012;2023-04-06T03:09:09;101757.97;;;-0.51;100.00
30421;BME280;17218;54.070;10.012;2023-04-06T03:11:35;101754.56;;;-0.51;100.00
30421;BME280;17218;54.070;10.012;2023-04-06T03:14:02;101752.28;;;-0.46;100.00
30421;BME280;17218;54.070;10.012;2023-04-06T03:16:28;101755.34;;;-0.52;100.00
30421;BME280;17218;54.070;10.012;2023-04-06T03:18:55;101757.19;;;-0.50;100.00
30421;BME280;17218;54.070;10.012;2023-04-06T03:21:22;101756.06;;;-0.55;100.00
30421;BME280;17218;54.070;10.012;2023-04-06T03:23:50;101757.19;;;-0.50;100.00
30421;BME280;17218;54.070;10.012;2023-04-06T03:26:16;101762.91;;;-0.54;100.00
30421;BME280;17218;54.070;10.012;2023-04-06T03:28:43;101760.44;;;-0.52;100.00
30421;BME280;17218;54.070;10.012;2023-04-06T03:31:09;101754.47;;;-0.53;100.00
30421;BME280;17218;54.070;10.012;2023-04-06T03:33:36;101775.38;;;-0.58;100.00
30421;BME280;17218;54.070;10.012;2023-04-06T03:36:03;101767.72;;;-0.58;100.00
30421;BME280;17218;54.070;10.012;2023-04-06T03:38:30;101776.09;;;-0.61;100.00
30421;BME280;17218;54.070;10.012;2023-04-06T03:40:58;101774.84;;;-0.68;100.00
30421;BME280;17218;54.070;10.012;2023-04-06T03:43:24;101765.22;;;-0.74;100.00
30421;BME280;17218;54.070;10.012;2023-04-06T03:45:51;101772.06;;;-0.73;100.00
30421;BME280;17218;54.070;10.012;2023-04-06T03:48:18;101784.16;;;-0.68;100.00
30421;BME280;17218;54.070;10.012;2023-04-06T03:50:44;101779.06;;;-0.68;100.00
30421;BME280;17218;54.070;10.012;2023-04-06T03:53:11;101779.50;;;-0.76;100.00
30421;BME280;17218;54.070;10.012;2023-04-06T03:55:37;101773.56;;;-0.76;100.00
30421;BME280;17218;54.070;10.012;2023-04-06T03:58:05;101775.56;;;-0.70;100.00
30421;BME280;17218;54.070;10.012;2023-04-06T04:00:32;101770.75;;;-0.81;100.00
30421;BME280;17218;54.070;10.012;2023-04-06T04:02:59;101777.16;;;-0.73;100.00
30421;BME280;17218;54.070;10.012;2023-04-06T04:05:26;101773.03;;;-0.70;100.00
30421;BME280;17218;54.070;10.012;2023-04-06T04:07:53;101771.25;;;-0.72;100.00
30421;BME280;17218;54.070;10.012;2023-04-06T04:10:20;101777.16;;;-0.73;100.00
30421;BME280;17218;54.070;10.012;2023-04-06T04:12:47;101783.22;;;-0.70;100.00
30421;BME280;17218;54.070;10.012;2023-04-06T04:15:15;101793.41;;;-0.70;100.00
30421;BME280;17218;54.070;10.012;2023-04-06T04:17:41;101784.72;;;-0.74;100.00
30421;BME280;17218;54.070;10.012;2023-04-06T04:20:12;101780.22;;;-0.78;100.00
30421;BME280;17218;54.070;10.012;2023-04-06T04:22:38;101785.31;;;-0.93;100.00
30421;BME280;17218;54.070;10.012;2023-04-06T04:25:05;101781.13;;;-0.93;100.00
30421;BME280;17218;54.070;10.012;2023-04-06T04:27:32;101778.81;;;-0.88;100.00
30421;BME280;17218;54.070;10.012;2023-04-06T04:29:58;101781.56;;;-0.85;100.00
30421;BME280;17218;54.070;10.012;2023-04-06T04:32:27;101785.16;;;-0.81;100.00
30421;BME280;17218;54.070;10.012;2023-04-06T04:34:53;101783.66;;;-0.78;100.00
30421;BME280;17218;54.070;10.012;2023-04-06T04:37:20;101778.38;;;-0.81;100.00
30421;BME280;17218;54.070;10.012;2023-04-06T04:39:47;101792.00;;;-0.80;100.00
30421;BME280;17218;54.070;10.012;2023-04-06T04:42:13;101778.66;;;-0.76;100.00
30421;BME280;17218;54.070;10.012;2023-04-06T04:44:40;101776.81;;;-0.79;100.00
30421;BME280;17218;54.070;10.012;2023-04-06T04:47:07;101792.97;;;-0.78;100.00
30421;BME280;17218;54.070;10.012;2023-04-06T04:49:35;101793.03;;;-0.77;100.00
30421;BME280;17218;54.070;10.012;2023-04-06T04:52:01;101786.97;;;-0.79;100.00
30421;BME280;17218;54.070;10.012;2023-04-06T04:54:28;101791.81;;;-0.83;100.00
30421;BME280;17218;54.070;10.012;2023-04-06T04:56:55;101786.97;;;-0.79;100.00
30421;BME280;17218;54.070;10.012;2023-04-06T04:59:21;101792.06;;;-0.79;100.00
30421;BME280;17218;54.070;10.012;2023-04-06T05:01:48;101796.91;;;-0.83;100.00
30421;BME280;17218;54.070;10.012;2023-04-06T05:04:14;101795.88;;;-0.87;100.00
30421;BME280;17218;54.070;10.012;2023-04-06T05:06:42;101796.91;;;-0.83;100.00
30421;BME280;17218;54.070;10.012;2023-04-06T05:09:09;101800.22;;;-0.69;100.00
30421;BME280;17218;54.070;10.012;2023-04-06T05:11:36;101795.13;;;-0.69;100.00
30421;BME280;17218;54.070;10.012;2023-04-06T05:14:02;101799.09;;;-0.75;100.00
30421;BME280;17218;54.070;10.012;2023-04-06T05:16:29;101801.03;;;-0.86;100.00
30421;BME280;17218;54.070;10.012;2023-04-06T05:18:55;101802.88;;;-0.98;100.00
30421;BME280;17218;54.070;10.012;2023-04-06T05:21:23;101799.28;;;-1.02;100.00
30421;BME280;17218;54.070;10.012;2023-04-06T05:23:51;101802.44;;;-0.91;100.00
30421;BME280;17218;54.070;10.012;2023-04-06T05:26:19;101811.66;;;-0.78;100.00
30421;BME280;17218;54.070;10.012;2023-04-06T05:28:46;101801.97;;;-0.68;100.00
30421;BME280;17218;54.070;10.012;2023-04-06T05:31:12;101790.41;;;-0.63;100.00
30421;BME280;17218;54.070;10.012;2023-04-06T05:33:39;101796.47;;;-0.61;100.00
30421;BME280;17218;54.070;10.012;2023-04-06T05:36:07;101802.03;;;-0.52;100.00
30421;BME280;17218;54.070;10.012;2023-04-06T05:38:33;101797.91;;;-0.50;100.00
30421;BME280;17218;54.070;10.012;2023-04-06T05:41:01;101804.03;;;-0.46;100.00
30421;BME280;17218;54.070;10.012;2023-04-06T05:43:28;101799.53;;;-0.35;100.00
30421;BME280;17218;54.070;10.012;2023-04-06T05:45:55;101809.41;;;-0.41;100.00
30421;BME280;17218;54.070;10.012;2023-04-06T05:48:21;101799.34;;;-0.23;100.00
30421;BME280;17218;54.070;10.012;2023-04-06T05:50:48;101799.13;;;-0.11;100.00
30421;BME280;17218;54.070;10.012;2023-04-06T05:53:15;101801.31;;;-0.02;100.00
30421;BME280;17218;54.070;10.012;2023-04-06T05:55:42;101801.19;;;-0.04;100.00
30421;BME280;17218;54.070;10.012;2023-04-06T05:58:10;101796.59;;;0.06;100.00
30421;BME280;17218;54.070;10.012;2023-04-06T06:00:36;101794.94;;;0.06;100.00
30421;BME280;17218;54.070;10.012;2023-04-06T06:03:03;101799.81;;;0.02;100.00
30421;BME280;17218;54.070;10.012;2023-04-06T06:05:31;101803.59;;;-0.07;100.00
30421;BME280;17218;54.070;10.012;2023-04-06T06:07:57;101808.94;;;-0.19;100.00
30421;BME280;17218;54.070;10.012;2023-04-06T06:10:27;101799.78;;;-0.15;100.00
30421;BME280;17218;54.070;10.012;2023-04-06T06:12:54;101796.03;;;-0.05;100.00
30421;BME280;17218;54.070;10.012;2023-04-06T06:15:22;101796.22;;;-0.02;100.00
30421;BME280;17218;54.070;10.012;2023-04-06T06:17:49;101804.44;;;0.09;100.00
30421;BME280;17218;54.070;10.012;2023-04-06T06:20:16;101802.13;;;0.14;100.00
30421;BME280;17218;54.070;10.012;2023-04-06T06:22:43;101796.88;;;0.27;100.00
30421;BME280;17218;54.070;10.012;2023-04-06T06:25:09;101802.75;;;0.26;100.00
30421;BME280;17218;54.070;10.012;2023-04-06T06:27:36;101812.81;;;0.40;100.00
30421;BME280;17218;54.070;10.012;2023-04-06T06:30:03;101811.13;;;0.40;100.00
30421;BME280;17218;54.070;10.012;2023-04-06T06:32:32;101808.50;;;0.55;100.00
30421;BME280;17218;54.070;10.012;2023-04-06T06:34:58;101812.56;;;0.68;100.00
30421;BME280;17218;54.070;10.012;2023-04-06T06:37:25;101817.00;;;0.73;100.00
30421;BME280;17218;54.070;10.012;2023-04-06T06:39:51;101802.03;;;0.79;100.00
30421;BME280;17218;54.070;10.012;2023-04-06T06:42:18;101817.06;;;0.91;100.00
30421;BME280;17218;54.070;10.012;2023-04-06T06:44:45;101812.47;;;1.02;100.00
30421;BME280;17218;54.070;10.012;2023-04-06T06:47:11;101806.47;;;1.00;100.00
30421;BME280;17218;54.070;10.012;2023-04-06T06:49:39;101804.19;;;1.06;100.00
30421;BME280;17218;54.070;10.012;2023-04-06T06:52:06;101812.69;;;1.23;100.00
30421;BME280;17218;54.070;10.012;2023-04-06T06:54:32;101810.56;;;1.33;100.00
30421;BME280;17218;54.070;10.012;2023-04-06T06:56:59;101808.41;;;1.40;100.00
30421;BME280;17218;54.070;10.012;2023-04-06T06:59:26;101804.06;;;1.58;100.00
30421;BME280;17218;54.070;10.012;2023-04-06T07:01:52;101797.06;;;1.72;100.00
30421;BME280;17218;54.070;10.012;2023-04-06T07:04:19;101804.66;;;1.88;100.00
30421;BME280;17218;54.070;10.012;2023-04-06T07:06:47;101802.41;;;1.96;100.00
30421;BME280;17218;54.070;10.012;2023-04-06T07:09:13;101787.56;;;2.07;100.00
30421;BME280;17218;54.070;10.012;2023-04-06T07:11:40;101786.53;;;2.22;100.00
30421;BME280;17218;54.070;10.012;2023-04-06T07:14:06;101796.22;;;2.29;100.00
30421;BME280;17218;54.070;10.012;2023-04-06T07:16:33;101790.81;;;2.43;100.00
30421;BME280;17218;54.070;10.012;2023-04-06T07:18:59;101798.31;;;2.59;100.00
30421;BME280;17218;54.070;10.012;2023-04-06T07:21:26;101796.81;;;2.84;100.00
30421;BME280;17218;54.070;10.012;2023-04-06T07:23:54;101786.88;;;2.92;100.00
30421;BME280;17218;54.070;10.012;2023-04-06T07:26:21;101787.88;;;2.96;100.00
30421;BME280;17218;54.070;10.012;2023-04-06T07:28:47;101786.84;;;3.12;100.00
30421;BME280;17218;54.070;10.012;2023-04-06T07:31:14;101794.44;;;3.32;100.00
30421;BME280;17218;54.070;10.012;2023-04-06T07:33:40;101785.63;;;3.46;100.00
30421;BME280;17218;54.070;10.012;2023-04-06T07:36:07;101786.81;;;3.55;100.00
30421;BME280;17218;54.070;10.012;2023-04-06T07:38:33;101789.19;;;3.73;100.00
30421;BME280;17218;54.070;10.012;2023-04-06T07:41:02;101776.78;;;3.84;100.00
30421;BME280;17218;54.070;10.012;2023-04-06T07:43:29;101778.75;;;3.91;100.00
30421;BME280;17218;54.070;10.012;2023-04-06T07:45:55;101771.28;;;3.98;100.00
30421;BME280;17218;54.070;10.012;2023-04-06T07:48:22;101783.91;;;4.16;100.00
30421;BME280;17218;54.070;10.012;2023-04-06T07:50:49;101775.69;;;4.25;100.00
30421;BME280;17218;54.070;10.012;2023-04-06T07:53:16;101775.34;;;4.40;100.00
30421;BME280;17218;54.070;10.012;2023-04-06T07:55:42;101765.69;;;4.59;100.00
30421;BME280;17218;54.070;10.012;2023-04-06T07:58:10;101762.38;;;4.61;100.00
30421;BME280;17218;54.070;10.012;2023-04-06T08:00:37;101767.50;;;4.61;100.00
30421;BME280;17218;54.070;10.012;2023-04-06T08:03:03;101765.22;;;4.69;100.00
30421;BME280;17218;54.070;10.012;2023-04-06T08:05:30;101758.00;;;4.85;100.00
30421;BME280;17218;54.070;10.012;2023-04-06T08:07:56;101766.31;;;5.04;100.00
30421;BME280;17218;54.070;10.012;2023-04-06T08:10:23;101760.88;;;5.22;100.00
30421;BME280;17218;54.070;10.012;2023-04-06T08:12:50;101755.34;;;5.37;100.00
30421;BME280;17218;54.070;10.012;2023-04-06T08:15:18;101753.19;;;5.51;100.00
30421;BME280;17218;54.070;10.012;2023-04-06T08:17:44;101750.97;;;5.62;100.00
30421;BME280;17218;54.070;10.012;2023-04-06T08:20:11;101748.91;;;5.81;100.00
30421;BME280;17218;54.070;10.012;2023-04-06T08:22:38;101749.88;;;5.84;100.00
30421;BME280;17218;54.070;10.012;2023-04-06T08:25:05;101740.63;;;5.90;100.00
30421;BME280;17218;54.070;10.012;2023-04-06T08:27:32;101744.63;;;6.11;100.00
30421;BME280;17218;54.070;10.012;2023-04-06T08:29:58;101734.97;;;6.34;100.00
30421;BME280;17218;54.070;10.012;2023-04-06T08:32:26;101734.59;;;6.52;100.00
30421;BME280;17218;54.070;10.012;2023-04-06T08:34:53;101740.53;;;6.85;100.00
30421;BME280;17218;54.070;10.012;2023-04-06T08:37:20;101730.50;;;6.98;100.00
30421;BME280;17218;54.070;10.012;2023-04-06T08:39:47;101736.75;;;7.08;100.00
30421;BME280;17218;54.070;10.012;2023-04-06T08:42:19;101736.19;;;7.21;100.00
30421;BME280;17218;54.070;10.012;2023-04-06T08:44:47;101736.34;;;7.27;100.00
30421;BME280;17218;54.070;10.012;2023-04-06T08:47:16;101734.22;;;7.49;100.00
30421;BME280;17218;54.070;10.012;2023-04-06T08:49:45;101728.53;;;7.64;100.00
30421;BME280;17218;54.070;10.012;2023-04-06T08:52:12;101731.16;;;7.66;100.00
30421;BME280;17218;54.070;10.012;2023-04-06T08:54:39;101725.25;;;7.72;100.00
30421;BME280;17218;54.070;10.012;2023-04-06T08:57:07;101714.78;;;7.66;100.00
30421;BME280;17218;54.070;10.012;2023-04-06T08:59:33;101732.31;;;7.82;99.27
30421;BME280;17218;54.070;10.012;2023-04-06T09:02:03;101729.09;;;7.93;97.17
30421;BME280;17218;54.070;10.012;2023-04-06T09:04:31;101719.78;;;8.01;99.24
30421;BME280;17218;54.070;10.012;2023-04-06T09:07:00;101716.78;;;8.24;98.17
30421;BME280;17218;54.070;10.012;2023-04-06T09:09:27;101711.06;;;8.41;91.37
30421;BME280;17218;54.070;10.012;2023-04-06T09:11:54;101725.63;;;8.39;92.77
30421;BME280;17218;54.070;10.012;2023-04-06T09:14:33;101722.31;;;8.46;92.90
30421;BME280;17218;54.070;10.012;2023-04-06T09:17:01;101725.41;;;8.25;79.51
30421;BME280;17218;54.070;10.012;2023-04-06T09:19:27;101718.25;;;8.09;72.25
30421;BME280;17218;54.070;10.012;2023-04-06T09:22:02;101720.28;;;8.28;71.24
30421;BME280;17218;54.070;10.012;2023-04-06T09:24:39;101722.75;;;8.21;69.84
30421;BME280;17218;54.070;10.012;2023-04-06T09:27:06;101716.00;;;8.28;71.24
30421;BME280;17218;54.070;10.012;2023-04-06T09:29:32;101712.91;;;8.50;71.83
30421;BME280;17218;54.070;10.012;2023-04-06T09:32:03;101702.28;;;8.32;70.13
30421;BME280;17218;54.070;10.012;2023-04-06T09:34:30;101714.38;;;8.33;73.81
30421;BME280;17218;54.070;10.012;2023-04-06T09:36:57;101702.75;;;8.57;73.16
30421;BME280;17218;54.070;10.012;2023-04-06T09:39:26;101705.72;;;8.84;73.58
30421;BME280;17218;54.070;10.012;2023-04-06T09:41:53;101696.44;;;8.95;68.95
30421;BME280;17218;54.070;10.012;2023-04-06T09:44:21;101695.56;;;8.95;66.06
30421;BME280;17218;54.070;10.012;2023-04-06T09:46:49;101693.53;;;8.74;64.19
30421;BME280;17218;54.070;10.012;2023-04-06T09:49:18;101696.63;;;8.52;65.29
30421;BME280;17218;54.070;10.012;2023-04-06T09:51:53;101689.38;;;8.82;69.34
30421;BME280;17218;54.070;10.012;2023-04-06T09:54:21;101690.38;;;8.93;66.23
30421;BME280;17218;54.070;10.012;2023-04-06T09:56:51;101689.91;;;9.21;68.26
30421;BME280;17218;54.070;10.012;2023-04-06T09:59:26;101684.56;;;9.09;69.25
30421;BME280;17218;54.070;10.012;2023-04-06T10:01:58;101681.06;;;9.05;69.35
30421;BME280;17218;54.070;10.012;2023-04-06T10:04:31;101676.06;;;9.17;67.55
30421;BME280;17218;54.070;10.012;2023-04-06T10:07:02;101680.69;;;9.40;62.67
30421;BME280;17218;54.070;10.012;2023-04-06T10:09:29;101680.72;;;9.45;62.28
30421;BME280;17218;54.070;10.012;2023-04-06T10:12:03;101672.91;;;9.39;62.65
30421;BME280;17218;54.070;10.012;2023-04-06T10:14:31;101689.00;;;9.17;60.77
30421;BME280;17218;54.070;10.012;2023-04-06T10:16:59;101675.22;;;9.17;61.45
30421;BME280;17218;54.070;10.012;2023-04-06T10:19:31;101677.66;;;9.07;63.54
30421;BME280;17218;54.070;10.012;2023-04-06T10:22:02;101677.59;;;9.03;62.89
30421;BME280;17218;54.070;10.012;2023-04-06T10:24:30;101676.19;;;9.27;63.28
30421;BME280;17218;54.070;10.012;2023-04-06T10:26:58;101677.88;;;9.23;62.24
30421;BME280;17218;54.070;10.012;2023-04-06T10:29:26;101669.47;;;9.40;62.73
30421;BME280;17218;54.070;10.012;2023-04-06T10:31:53;101672.25;;;9.56;61.32
30421;BME280;17218;54.070;10.012;2023-04-06T10:34:20;101680.25;;;9.79;62.66
30421;BME280;17218;54.070;10.012;2023-04-06T10:36:47;101682.88;;;9.81;60.87
30421;BME280;17218;54.070;10.012;2023-04-06T10:39:14;101672.28;;;9.59;59.67
30421;BME280;17218;54.070;10.012;2023-04-06T10:41:42;101674.94;;;9.63;59.84
30421;BME280;17218;54.070;10.012;2023-04-06T10:44:17;101664.94;;;9.98;61.57
30421;BME280;17218;54.070;10.012;2023-04-06T10:46:52;101671.09;;;10.08;59.20
30421;BME280;17218;54.070;10.012;2023-04-06T10:49:19;101668.53;;;10.12;60.52
30421;BME280;17218;54.070;10.012;2023-04-06T10:51:51;101653.38;;;9.66;59.20
30421;BME280;17218;54.070;10.012;2023-04-06T10:54:20;101664.91;;;9.95;60.53
30421;BME280;17218;54.070;10.012;2023-04-06T10:56:47;101669.59;;;10.33;60.90
30421;BME280;17218;54.070;10.012;2023-04-06T10:59:18;101674.16;;;10.61;58.07
30421;BME280;17218;54.070;10.012;2023-04-06T11:01:46;101668.97;;;10.59;55.01
30421;BME280;17218;54.070;10.012;2023-04-06T11:04:16;101655.41;;;11.04;55.24
30421;BME280;17218;54.070;10.012;2023-04-06T11:06:46;101659.91;;;11.38;54.45
30421;BME280;17218;54.070;10.012;2023-04-06T11:09:23;101651.28;;;11.50;54.19
30421;BME280;17218;54.070;10.012;2023-04-06T11:11:50;101640.13;;;11.87;52.62
30421;BME280;17218;54.070;10.012;2023-04-06T11:14:16;101645.34;;;12.08;52.09
30421;BME280;17218;54.070;10.012;2023-04-06T11:16:47;101639.34;;;12.57;49.89
30421;BME280;17218;54.070;10.012;2023-04-06T11:19:15;101641.81;;;13.12;48.20
30421;BME280;17218;54.070;10.012;2023-04-06T11:21:43;101640.78;;;13.43;48.58
30421;BME280;17218;54.070;10.012;2023-04-06T11:24:13;101642.69;;;14.52;45.47
30421;BME280;17218;54.070;10.012;2023-04-06T11:26:43;101628.78;;;15.95;41.46
30421;BME280;17218;54.070;10.012;2023-04-06T11:29:11;101634.16;;;15.86;41.18
30421;BME280;17218;54.070;10.012;2023-04-06T11:31:40;101622.69;;;16.49;38.58
30421;BME280;17218;54.070;10.012;2023-04-06T11:34:12;101613.91;;;17.80;38.18
30421;BME280;17218;54.070;10.012;2023-04-06T11:36:43;101621.78;;;18.18;34.99
30421;BME280;17218;54.070;10.012;2023-04-06T11:39:10;101628.03;;;18.10;34.45
30421;BME280;17218;54.070;10.012;2023-04-06T11:41:37;101612.50;;;17.64;34.34
30421;BME280;17218;54.070;10.012;2023-04-06T11:44:05;101608.31;;;17.94;34.41
30421;BME280;17218;54.070;10.012;2023-04-06T11:46:32;101615.56;;;19.48;32.85
30421;BME280;17218;54.070;10.012;2023-04-06T11:48:59;101610.97;;;19.26;33.42
30421;BME280;17218;54.070;10.012;2023-04-06T11:51:28;101620.53;;;19.86;31.22
30421;BME280;17218;54.070;10.012;2023-04-06T11:53:54;101615.16;;;19.01;31.89
30421;BME280;17218;54.070;10.012;2023-04-06T11:56:25;101618.34;;;18.49;33.57
30421;BME280;17218;54.070;10.012;2023-04-06T11:58:54;101604.19;;;18.87;32.35
30421;BME280;17218;54.070;10.012;2023-04-06T12:01:20;101607.50;;;20.85;30.68
30421;BME280;17218;54.070;10.012;2023-04-06T12:03:47;101614.53;;;19.53;31.66
30421;BME280;17218;54.070;10.012;2023-04-06T12:06:14;101611.50;;;19.07;32.17
30421;BME280;17218;54.070;10.012;2023-04-06T12:08:42;101601.13;;;19.33;31.38
30421;BME280;17218;54.070;10.012;2023-04-06T12:11:10;101596.13;;;19.82;30.92
30421;BME280;17218;54.070;10.012;2023-04-06T12:13:36;101588.94;;;20.40;30.38
30421;BME280;17218;54.070;10.012;2023-04-06T12:16:03;101583.88;;;21.97;30.38
30421;BME280;17218;54.070;10.012;2023-04-06T12:18:31;101582.84;;;21.34;29.29
30421;BME280;17218;54.070;10.012;2023-04-06T12:20:57;101593.44;;;21.10;28.97
30421;BME280;17218;54.070;10.012;2023-04-06T12:23:24;101598.00;;;19.50;30.24
30421;BME280;17218;54.070;10.012;2023-04-06T12:25:52;101592.63;;;20.09;29.24
30421;BME280;17218;54.070;10.012;2023-04-06T12:28:20;101576.13;;;22.55;28.01
30421;BME280;17218;54.070;10.012;2023-04-06T12:30:48;101577.00;;;23.88;27.63
30421;BME280;17218;54.070;10.012;2023-04-06T12:33:15;101567.47;;;23.11;26.65
30421;BME280;17218;54.070;10.012;2023-04-06T12:35:41;101577.56;;;22.62;27.73
30421;BME280;17218;54.070;10.012;2023-04-06T12:38:08;101577.03;;;22.75;27.89